Time;durP1;ratioP1;P1;durP2;ratioP2;P2;SDS_P1;SDS_P2;PMS_P1;PMS_P2;Temp;Humidity;BMP_temperature;BMP_pressure;BME280_temperature;BME280_humidity;BME280_pressure;Samples;Min_cycle;Max_cycle;Signal;HPM_P1;HPM_P2
2021/09/15 00:00:22;;;;;;;10.63;7.65;;;20.60;99.90;;;;;;6715392;88;20189;-77
2021/09/15 00:10:23;;;;;;;9.05;7.45;;;20.70;99.90;;;;;;6715067;88;20188;-77
2021/09/15 00:20:24;;;;;;;10.43;7.40;;;20.70;99.90;;;;;;6714944;88;20212;-77
2021/09/15 00:30:24;;;;;;;9.82;7.05;;;20.70;99.90;;;;;;6715342;88;20650;-76
2021/09/15 00:40:25;;;;;;;9.77;7.12;;;20.70;99.90;;;;;;6714924;88;20313;-76
2021/09/15 00:50:25;;;;;;;11.68;7.43;;;20.60;99.90;;;;;;6716373;88;20206;-77
2021/09/15 01:00:26;;;;;;;10.57;7.67;;;20.80;99.90;;;;;;6710997;88;20217;-77
2021/09/15 01:10:27;;;;;;;12.13;7.78;;;20.70;99.90;;;;;;6714803;88;20182;-77
2021/09/15 01:20:27;;;;;;;12.85;7.57;;;20.60;99.90;;;;;;6713876;88;20190;-77
2021/09/15 01:30:28;;;;;;;9.85;7.72;;;20.70;99.90;;;;;;6714231;88;20605;-77
2021/09/15 01:40:29;;;;;;;11.57;7.75;;;20.60;99.90;;;;;;6713789;88;20926;-77
2021/09/15 01:50:29;;;;;;;12.73;8.00;;;20.50;99.90;;;;;;6713614;88;20189;-77
2021/09/15 02:00:30;;;;;;;13.60;8.15;;;20.30;99.90;;;;;;6713859;88;20226;-77
2021/09/15 02:10:30;;;;;;;13.32;7.50;;;20.30;99.90;;;;;;6715264;88;20720;-77
2021/09/15 02:20:31;;;;;;;12.15;7.62;;;20.70;99.90;;;;;;6716023;88;21392;-77
2021/09/15 02:30:31;;;;;;;9.38;7.43;;;20.80;99.90;;;;;;6716184;88;20248;-77
2021/09/15 02:40:32;;;;;;;12.52;7.22;;;20.70;99.90;;;;;;6715901;88;20280;-76
2021/09/15 02:50:33;;;;;;;11.52;7.80;;;20.70;99.90;;;;;;6716376;88;20191;-76
2021/09/15 03:00:33;;;;;;;10.50;7.93;;;20.70;99.90;;;;;;6718151;88;20249;-77
2021/09/15 03:10:34;;;;;;;11.12;8.48;;;20.50;99.90;;;;;;6716110;88;20648;-77
2021/09/15 03:20:34;;;;;;;12.35;8.82;;;20.30;99.90;;;;;;6716167;88;20329;-76
2021/09/15 03:30:35;;;;;;;11.82;8.98;;;20.20;99.90;;;;;;6716120;88;20668;-77
2021/09/15 03:40:35;;;;;;;13.30;9.60;;;20.10;99.90;;;;;;6715706;88;20626;-76
2021/09/15 03:50:36;;;;;;;15.20;10.23;;;20.00;99.90;;;;;;6715282;88;20287;-77
2021/09/15 04:00:36;;;;;;;17.85;11.90;;;19.70;99.90;;;;;;6711128;88;20245;-77
2021/09/15 04:10:37;;;;;;;21.92;12.05;;;19.60;99.90;;;;;;6714273;88;20186;-76
2021/09/15 04:20:37;;;;;;;18.27;13.48;;;19.50;99.90;;;;;;6725068;88;20215;-76
2021/09/15 04:40:57;;;;;;;20.15;15.27;;;19.30;99.90;;;;;;6730032;88;20186;-76
2021/09/15 04:50:58;;;;;;;21.02;14.57;;;19.20;99.90;;;;;;6727131;88;20202;-76
2021/09/15 05:00:58;;;;;;;21.80;14.90;;;19.20;99.90;;;;;;6726695;88;20193;-78
2021/09/15 05:10:59;;;;;;;22.58;15.77;;;19.20;99.90;;;;;;6726180;88;20694;-75
2021/09/15 05:20:59;;;;;;;21.58;15.75;;;19.20;99.90;;;;;;6730313;88;20210;-77
2021/09/15 05:31:00;;;;;;;23.62;16.23;;;19.10;99.90;;;;;;6732241;88;20198;-76
2021/09/15 05:41:00;;;;;;;23.48;16.70;;;19.10;99.90;;;;;;6722516;88;20931;-77
2021/09/15 05:51:01;;;;;;;21.40;15.13;;;19.10;99.90;;;;;;6717493;88;20758;-76
2021/09/15 06:01:01;;;;;;;23.62;16.45;;;19.20;99.90;;;;;;6723463;88;20200;-77
2021/09/15 06:11:02;;;;;;;23.73;17.03;;;19.00;99.90;;;;;;6718364;88;20186;-76
2021/09/15 06:21:03;;;;;;;19.48;15.18;;;19.10;99.90;;;;;;6722157;88;20206;-76
2021/09/15 06:31:05;;;;;;;23.00;15.45;;;19.20;99.90;;;;;;6719498;88;20198;-76
2021/09/15 06:41:05;;;;;;;19.67;14.13;;;19.30;99.90;;;;;;6722192;88;20218;-78
2021/09/15 06:51:06;;;;;;;19.42;13.27;;;19.40;99.90;;;;;;6724775;88;20301;-76
2021/09/15 07:01:06;;;;;;;17.45;13.43;;;19.50;99.90;;;;;;6730505;88;20283;-75
2021/09/15 07:11:07;;;;;;;17.53;13.43;;;19.60;99.90;;;;;;6730732;88;20182;-75
2021/09/15 07:21:07;;;;;;;18.12;13.27;;;19.80;99.90;;;;;;6734287;88;20194;-76
2021/09/15 07:31:08;;;;;;;16.92;10.73;;;19.80;99.90;;;;;;6733939;88;20211;-77
2021/09/15 07:41:08;;;;;;;13.57;10.20;;;19.90;99.90;;;;;;6730961;88;20211;-76
2021/09/15 07:51:09;;;;;;;11.38;8.30;;;20.00;99.90;;;;;;6735011;88;20175;-76
2021/09/15 08:01:09;;;;;;;13.35;8.55;;;20.10;99.90;;;;;;6726641;88;20227;-78
2021/09/15 08:11:10;;;;;;;9.50;6.68;;;20.10;99.90;;;;;;6714262;88;20218;-76
2021/09/15 08:21:10;;;;;;;12.00;8.18;;;20.10;99.90;;;;;;6713683;88;20220;-76
2021/09/15 08:31:11;;;;;;;12.52;8.23;;;20.20;99.90;;;;;;6713636;88;20192;-76
2021/09/15 08:41:14;;;;;;;9.10;6.40;;;20.40;99.90;;;;;;6713715;88;20223;-76
2021/09/15 08:51:22;;;;;;;7.57;5.00;;;20.70;99.90;;;;;;6714234;88;20682;-78
2021/09/15 09:01:25;;;;;;;7.10;4.12;;;20.80;99.90;;;;;;6713489;88;20309;-77
2021/09/15 09:11:28;;;;;;;5.25;3.83;;;20.80;99.90;;;;;;6712994;88;20886;-76
2021/09/15 09:21:31;;;;;;;8.43;4.00;;;20.70;99.90;;;;;;6712904;88;20797;-76
2021/09/15 09:31:33;;;;;;;7.53;4.18;;;21.00;99.90;;;;;;6712794;88;20206;-77
2021/09/15 09:41:33;;;;;;;7.50;4.70;;;21.10;99.90;;;;;;6712646;88;20205;-76
2021/09/15 09:51:36;;;;;;;10.98;6.53;;;20.90;99.90;;;;;;6713052;88;20707;-77
2021/09/15 10:01:40;;;;;;;10.02;5.90;;;20.90;99.90;;;;;;6715709;88;20681;-76
2021/09/15 10:11:42;;;;;;;8.97;5.80;;;20.60;99.90;;;;;;6712598;88;20660;-78
2021/09/15 10:21:43;;;;;;;12.27;6.70;;;20.50;99.90;;;;;;6720014;88;20303;-75
2021/09/15 10:32:03;;;;;;;8.75;5.70;;;20.40;99.90;;;;;;6722809;88;20183;-77
2021/09/15 10:42:04;;;;;;;9.48;6.03;;;20.60;99.90;;;;;;6724506;88;20208;-77
2021/09/15 10:52:08;;;;;;;11.75;7.20;;;20.70;99.90;;;;;;6723229;88;20215;-77
2021/09/15 11:02:22;;;;;;;9.90;7.03;;;20.90;99.90;;;;;;6725523;88;20221;-77
2021/09/15 11:12:43;;;;;;;8.65;5.45;;;21.20;99.90;;;;;;6725154;88;20177;-78
2021/09/15 11:22:44;;;;;;;8.02;5.00;;;21.40;99.90;;;;;;6725140;88;20256;-77
2021/09/15 11:32:45;;;;;;;8.60;5.85;;;21.40;99.90;;;;;;6721524;88;20207;-77
2021/09/15 11:42:49;;;;;;;11.50;6.22;;;21.50;99.90;;;;;;6725062;88;20274;-78
2021/09/15 11:53:10;;;;;;;10.27;5.47;;;21.70;99.90;;;;;;6724988;88;20256;-78
2021/09/15 12:03:14;;;;;;;6.22;4.30;;;22.10;99.90;;;;;;6721546;88;20174;-78
2021/09/15 12:13:14;;;;;;;5.80;3.67;;;22.20;99.90;;;;;;6715004;88;20210;-76
2021/09/15 12:23:17;;;;;;;6.85;3.30;;;22.70;99.90;;;;;;6714269;88;20206;-77
2021/09/15 12:33:29;;;;;;;13.07;2.90;;;23.50;99.90;;;;;;6712996;88;20181;-77
2021/09/15 12:43:31;;;;;;;5.37;2.80;;;23.30;99.90;;;;;;6713168;88;20194;-76
2021/09/15 12:53:44;;;;;;;5.93;2.90;;;23.40;99.90;;;;;;6711654;88;20241;-77
2021/09/15 13:03:46;;;;;;;5.22;2.67;;;23.20;99.90;;;;;;6713105;88;20203;-76
2021/09/15 13:13:47;;;;;;;3.65;2.47;;;22.50;99.90;;;;;;6713467;88;20700;-77
2021/09/15 13:23:48;;;;;;;4.62;1.83;;;22.30;99.90;;;;;;6719281;88;20178;-78
2021/09/15 13:33:48;;;;;;;2.87;1.50;;;22.00;99.90;;;;;;6720130;88;20354;-76
2021/09/15 13:43:49;;;;;;;5.82;1.90;;;21.10;99.90;;;;;;6721506;88;20313;-76
2021/09/15 13:53:49;;;;;;;3.40;2.03;;;20.80;99.90;;;;;;6715835;88;20215;-77
2021/09/15 14:03:50;;;;;;;4.22;2.33;;;20.60;99.90;;;;;;6722779;88;20296;-77
2021/09/15 14:13:51;;;;;;;5.32;2.90;;;20.40;99.90;;;;;;6721948;88;20215;-75
2021/09/15 14:23:51;;;;;;;3.92;2.62;;;20.50;99.90;;;;;;6723669;88;21049;-76
2021/09/15 14:33:52;;;;;;;4.12;2.50;;;20.60;99.90;;;;;;6723707;88;20194;-78
2021/09/15 14:43:52;;;;;;;7.63;3.17;;;20.50;99.90;;;;;;6723918;88;20222;-76
2021/09/15 14:53:53;;;;;;;5.80;3.58;;;20.50;99.90;;;;;;6723687;88;20713;-76
2021/09/15 15:03:53;;;;;;;5.78;3.67;;;20.60;99.90;;;;;;6724313;88;20269;-77
2021/09/15 15:13:54;;;;;;;4.95;3.30;;;20.80;99.90;;;;;;6720062;88;20207;-76
2021/09/15 15:23:55;;;;;;;6.00;3.37;;;21.00;99.90;;;;;;6724639;88;20193;-76
2021/09/15 15:33:55;;;;;;;8.80;4.97;;;21.50;99.90;;;;;;6727181;88;20217;-77
2021/09/15 15:43:57;;;;;;;6.57;4.35;;;22.00;99.90;;;;;;6724327;88;20578;-78
2021/09/15 15:53:57;;;;;;;6.40;4.15;;;22.60;99.90;;;;;;6722701;88;20789;-76
2021/09/15 16:04:00;;;;;;;9.73;5.18;;;22.90;99.90;;;;;;6722944;88;20242;-76
2021/09/15 16:14:01;;;;;;;9.57;6.13;;;22.80;99.90;;;;;;6723130;88;20174;-77
2021/09/15 16:24:03;;;;;;;32.72;20.30;;;22.40;99.90;;;;;;6720975;77;20198;-79
2021/09/15 16:34:03;;;;;;;50.75;28.67;;;21.30;99.90;;;;;;6723232;88;20228;-78
2021/09/15 16:44:48;;;;;;;56.33;31.00;;;20.40;99.90;;;;;;6795552;86;20287;-78
2021/09/15 16:54:48;;;;;;;61.55;33.35;;;20.10;99.90;;;;;;6778375;87;20326;-78
2021/09/15 17:04:49;;;;;;;58.45;33.17;;;20.00;99.90;;;;;;6779221;87;20800;-80
2021/09/15 17:14:49;;;;;;;57.62;32.90;;;19.70;99.90;;;;;;6792099;87;20184;-79
2021/09/15 17:24:51;;;;;;;45.03;30.20;;;19.40;99.90;;;;;;6790813;87;20585;-79
2021/09/15 17:34:51;;;;;;;39.15;27.95;;;19.20;99.90;;;;;;6779348;87;20192;-79
2021/09/15 17:44:52;;;;;;;29.77;22.27;;;19.10;99.90;;;;;;6775826;87;20186;-77
2021/09/15 17:54:53;;;;;;;32.60;23.08;;;18.90;99.90;;;;;;6760289;87;20191;-77
2021/09/15 18:04:53;;;;;;;31.92;22.95;;;18.90;99.90;;;;;;6755130;87;20205;-76
2021/09/15 18:14:54;;;;;;;35.00;24.02;;;18.80;99.90;;;;;;6759887;87;20197;-78
2021/09/15 18:24:54;;;;;;;30.10;21.15;;;18.80;99.90;;;;;;6766761;87;20738;-79
2021/09/15 18:34:55;;;;;;;26.90;20.80;;;18.80;99.90;;;;;;6764943;87;20646;-78
2021/09/15 18:44:56;;;;;;;31.85;21.27;;;18.80;99.90;;;;;;6763567;87;20714;-78
2021/09/15 18:55:00;;;;;;;28.02;20.75;;;18.70;99.90;;;;;;6761183;87;20218;-79
2021/09/15 19:05:01;;;;;;;23.58;18.45;;;18.50;99.90;;;;;;6767937;87;20662;-78
2021/09/15 19:15:03;;;;;;;23.27;16.90;;;18.60;99.90;;;;;;6771078;87;20215;-78
2021/09/15 19:25:04;;;;;;;23.60;15.85;;;18.50;99.90;;;;;;6766593;87;20581;-79
2021/09/15 19:35:06;;;;;;;19.65;13.82;;;18.50;99.90;;;;;;6775699;87;20281;-80
2021/09/15 19:45:07;;;;;;;23.55;13.10;;;18.30;99.90;;;;;;6786409;87;20181;-79
2021/09/15 19:55:09;;;;;;;19.75;12.77;;;18.30;99.90;;;;;;6768268;87;20225;-78
2021/09/15 20:05:11;;;;;;;14.73;10.68;;;18.20;99.90;;;;;;6774180;87;20714;-79
2021/09/15 20:15:13;;;;;;;13.73;9.23;;;18.30;99.90;;;;;;6766200;87;20213;-80
2021/09/15 20:25:14;;;;;;;13.90;7.97;;;18.30;99.90;;;;;;6765632;87;20189;-78
2021/09/15 20:35:15;;;;;;;12.50;7.68;;;18.30;99.90;;;;;;6766508;87;20247;-79
2021/09/15 20:45:19;;;;;;;16.75;8.45;;;18.30;99.90;;;;;;6767840;87;20172;-79
2021/09/15 20:55:20;;;;;;;15.20;8.60;;;18.30;99.90;;;;;;6769709;87;20252;-78
2021/09/15 21:05:21;;;;;;;14.10;8.52;;;18.20;99.90;;;;;;6768828;87;20493;-78
2021/09/15 21:15:21;;;;;;;13.40;8.23;;;18.10;99.90;;;;;;6763010;87;20712;-79
2021/09/15 21:25:22;;;;;;;13.10;7.73;;;18.00;99.90;;;;;;6765964;87;20630;-79
2021/09/15 21:35:23;;;;;;;13.73;7.00;;;18.00;99.90;;;;;;6765789;87;20197;-78
2021/09/15 21:45:23;;;;;;;12.07;6.53;;;17.90;99.90;;;;;;6771145;87;20852;-80
2021/09/15 21:55:24;;;;;;;14.67;6.97;;;17.90;99.90;;;;;;6770090;87;20181;-78
2021/09/15 22:05:24;;;;;;;14.20;6.70;;;17.90;99.90;;;;;;6769033;87;20789;-79
2021/09/15 22:15:25;;;;;;;11.38;5.97;;;17.80;99.90;;;;;;6770621;87;20191;-79
2021/09/15 22:25:27;;;;;;;12.32;5.05;;;17.80;99.90;;;;;;6765960;87;20192;-79
2021/09/15 22:35:28;;;;;;;10.20;4.82;;;17.70;99.90;;;;;;6764415;87;20308;-78
2021/09/15 22:45:29;;;;;;;8.15;4.32;;;17.70;99.90;;;;;;6766055;87;20183;-79
2021/09/15 22:55:29;;;;;;;10.93;4.60;;;17.60;99.90;;;;;;6767935;87;20189;-78
2021/09/15 23:05:30;;;;;;;9.52;4.15;;;17.60;99.90;;;;;;6765710;87;20529;-78
2021/09/15 23:15:30;;;;;;;9.23;3.33;;;17.60;99.90;;;;;;6764676;87;20184;-79
2021/09/15 23:25:31;;;;;;;7.12;3.42;;;17.50;99.90;;;;;;6765337;87;20798;-79
2021/09/15 23:35:32;;;;;;;8.93;3.58;;;17.50;99.90;;;;;;6765492;87;20205;-80
2021/09/15 23:45:32;;;;;;;9.95;3.40;;;17.40;99.90;;;;;;6774164;87;20192;-79
2021/09/15 23:55:33;;;;;;;8.82;4.25;;;17.40;99.90;;;;;;6766517;87;20208;-78
